Time;durP1;ratioP1;P1;durP2;ratioP2;P2;SDS_P1;SDS_P2;PMS_P1;PMS_P2;Temp;Humidity;BMP_temperature;BMP_pressure;BME280_temperature;BME280_humidity;BME280_pressure;Samples;Min_cycle;Max_cycle;Signal;HPM_P1;HPM_P2
2024/03/04 00:04:50;;;;;;;;;;;6.60;99.90;;;;;;21088048;28;20386;-77
2024/03/04 00:14:51;;;;;;;;;;;6.60;99.90;;;;;;21085420;28;19916;-76
2024/03/04 00:24:52;;;;;;;;;;;6.50;99.90;;;;;;21067912;28;20015;-77
2024/03/04 00:34:54;;;;;;;;;;;6.40;99.90;;;;;;21076748;28;20548;-77
2024/03/04 00:44:55;;;;;;;;;;;6.30;99.90;;;;;;21085397;28;20359;-77
2024/03/04 00:54:56;;;;;;;;;;;6.30;99.90;;;;;;21080864;28;19923;-77
2024/03/04 01:04:57;;;;;;;;;;;6.20;99.90;;;;;;21074164;28;20333;-76
2024/03/04 01:14:58;;;;;;;;;;;6.20;99.90;;;;;;21077551;28;19950;-77
2024/03/04 01:24:58;;;;;;;;;;;6.10;99.90;;;;;;21079413;28;19919;-77
2024/03/04 01:34:59;;;;;;;;;;;6.10;99.90;;;;;;21078451;28;20333;-76
2024/03/04 01:45:00;;;;;;;;;;;6.00;99.90;;;;;;21078355;28;19919;-76
2024/03/04 01:55:01;;;;;;;;;;;5.90;99.90;;;;;;21069977;28;19941;-76
2024/03/04 02:05:08;;;;;;;;;;;5.90;99.90;;;;;;21069053;28;19955;-76
2024/03/04 02:15:09;;;;;;;;;;;5.80;99.90;;;;;;21068332;28;20291;-77
2024/03/04 02:25:13;;;;;;;;;;;5.80;99.90;;;;;;21077068;28;19912;-77
2024/03/04 02:35:14;;;;;;;;;;;5.80;99.90;;;;;;21068695;28;20333;-77
2024/03/04 02:45:15;;;;;;;;;;;5.70;99.90;;;;;;21076045;28;19965;-77
2024/03/04 02:55:15;;;;;;;;;;;5.60;99.90;;;;;;21059089;28;19916;-77
2024/03/04 03:05:16;;;;;;;;;;;5.60;99.90;;;;;;21068057;28;19955;-77
2024/03/04 03:15:17;;;;;;;;;;;5.60;99.90;;;;;;21073752;28;19997;-77
2024/03/04 03:25:17;;;;;;;;;;;5.50;99.90;;;;;;21071595;28;19919;-77
2024/03/04 03:35:18;;;;;;;;;;;5.50;99.90;;;;;;21084980;28;19951;-76
2024/03/04 03:45:19;;;;;;;;;;;5.50;99.90;;;;;;21077244;28;19919;-77
2024/03/04 03:55:19;;;;;;;;;;;5.40;99.90;;;;;;21072541;28;19916;-75
2024/03/04 04:05:20;;;;;;;;;;;5.40;99.90;;;;;;21088623;28;19912;-77
2024/03/04 04:15:21;;;;;;;;;;;5.40;99.90;;;;;;21077657;28;19962;-77
2024/03/04 04:25:21;;;;;;;;;;;5.30;99.90;;;;;;21081057;28;19935;-77
2024/03/04 04:35:22;;;;;;;;;;;5.40;99.90;;;;;;21087236;28;20359;-77
2024/03/04 04:45:26;;;;;;;;;;;5.40;99.90;;;;;;21084143;28;20302;-77
2024/03/04 04:55:26;;;;;;;;;;;5.30;99.90;;;;;;21076772;28;20003;-77
2024/03/04 05:05:27;;;;;;;;;;;5.30;99.90;;;;;;21065617;28;19944;-76
2024/03/04 05:15:27;;;;;;;;;;;5.30;99.90;;;;;;21056542;28;19939;-76
2024/03/04 05:25:28;;;;;;;;;;;5.30;99.90;;;;;;21088108;28;19919;-75
2024/03/04 05:35:29;;;;;;;;;;;5.30;99.90;;;;;;21083532;28;20410;-76
2024/03/04 05:45:29;;;;;;;;;;;5.30;99.90;;;;;;21090250;28;19912;-75
2024/03/04 05:55:30;;;;;;;;;;;5.40;99.90;;;;;;21063515;28;20327;-76
2024/03/04 06:05:31;;;;;;;;;;;5.40;99.90;;;;;;21068979;28;19966;-77
2024/03/04 06:15:31;;;;;;;;;;;5.40;99.90;;;;;;21075494;28;19973;-77
2024/03/04 06:25:32;;;;;;;;;;;5.40;99.90;;;;;;21066247;28;19924;-77
2024/03/04 06:35:32;;;;;;;;;;;5.50;99.90;;;;;;21071105;28;20387;-77
2024/03/04 06:45:33;;;;;;;;;;;5.40;99.90;;;;;;21056094;28;19923;-77
2024/03/04 06:55:34;;;;;;;;;;;5.40;99.90;;;;;;21065786;28;19920;-76
2024/03/04 07:05:35;;;;;;;;;;;5.50;99.90;;;;;;21073740;28;20409;-76
2024/03/04 07:15:36;;;;;;;;;;;5.40;99.90;;;;;;21083376;28;20344;-76
2024/03/04 07:25:36;;;;;;;;;;;5.40;99.90;;;;;;21097286;28;19965;-76
2024/03/04 07:35:43;;;;;;;;;;;5.40;99.90;;;;;;21065086;28;19922;-77
2024/03/04 07:45:44;;;;;;;;;;;5.50;99.90;;;;;;21058451;28;19957;-77
2024/03/04 07:55:45;;;;;;;;;;;5.50;99.90;;;;;;21055129;28;19963;-77
2024/03/04 08:05:47;;;;;;;;;;;5.40;99.90;;;;;;21068295;28;20290;-77
2024/03/04 08:15:48;;;;;;;;;;;5.40;99.90;;;;;;21070362;28;20012;-76
2024/03/04 08:25:50;;;;;;;;;;;5.40;99.90;;;;;;21085028;28;20325;-76
2024/03/04 08:35:51;;;;;;;;;;;5.40;99.90;;;;;;21075341;28;20396;-76
2024/03/04 08:45:51;;;;;;;;;;;5.30;99.90;;;;;;21083822;28;19943;-76
2024/03/04 08:55:53;;;;;;;;;;;5.40;99.90;;;;;;21070080;28;19916;-77
2024/03/04 09:05:54;;;;;;;;;;;5.50;99.90;;;;;;21071168;28;19916;-77
2024/03/04 09:15:55;;;;;;;;;;;5.60;99.90;;;;;;21083227;28;20008;-77
2024/03/04 09:25:55;;;;;;;;;;;5.70;99.90;;;;;;21085733;28;20286;-77
2024/03/04 09:35:56;;;;;;;;;;;5.70;99.90;;;;;;21088025;28;19970;-77
2024/03/04 09:46:00;;;;;;;;;;;5.70;99.90;;;;;;21063493;28;19913;-77
2024/03/04 09:56:00;;;;;;;;;;;5.70;99.90;;;;;;21054244;28;19917;-77
2024/03/04 10:06:03;;;;;;;;;;;5.70;99.90;;;;;;21068811;28;19912;-77
2024/03/04 10:16:04;;;;;;;;;;;5.70;99.90;;;;;;21081785;28;19919;-75
2024/03/04 10:26:08;;;;;;;;;;;5.70;99.90;;;;;;21079259;28;20283;-77
2024/03/04 10:36:16;;;;;;;;;;;5.70;99.90;;;;;;21063969;28;20246;-77
2024/03/04 10:46:18;;;;;;;;;;;5.70;99.90;;;;;;21080637;28;19919;-77
2024/03/04 10:56:18;;;;;;;;;;;5.70;99.90;;;;;;21080125;28;20497;-78
2024/03/04 11:06:20;;;;;;;;;;;6.00;99.90;;;;;;21087133;28;19912;-79
2024/03/04 11:16:30;;;;;;;;;;;5.90;99.90;;;;;;21090095;28;20504;-78
2024/03/04 11:26:31;;;;;;;;;;;6.20;99.90;;;;;;21090054;28;19912;-76
2024/03/04 11:36:32;;;;;;;;;;;6.30;99.90;;;;;;21087048;28;20274;-79
2024/03/04 11:46:37;;;;;;;;;;;6.40;99.90;;;;;;21087192;28;20314;-78
2024/03/04 11:56:39;;;;;;;;;;;6.80;99.90;;;;;;21091869;28;19923;-77
2024/03/04 12:06:40;;;;;;;;;;;7.30;99.90;;;;;;21095763;28;19912;-77
2024/03/04 12:16:41;;;;;;;;;;;7.50;99.90;;;;;;21099018;28;19916;-78
2024/03/04 12:26:47;;;;;;;;;;;7.60;99.90;;;;;;21085168;28;19919;-78
2024/03/04 12:36:51;;;;;;;;;;;8.00;99.90;;;;;;21080421;28;19916;-77
2024/03/04 12:46:52;;;;;;;;;;;7.90;99.90;;;;;;21069664;28;19912;-77
2024/03/04 12:56:54;;;;;;;;;;;8.10;99.90;;;;;;21080061;28;19916;-78
2024/03/04 13:06:54;;;;;;;;;;;8.10;99.90;;;;;;21061353;28;19993;-77
2024/03/04 13:16:55;;;;;;;;;;;8.80;99.90;;;;;;21058934;28;19916;-78
2024/03/04 13:26:56;;;;;;;;;;;8.70;99.90;;;;;;21051446;28;19965;-77
2024/03/04 13:36:56;;;;;;;;;;;8.40;99.90;;;;;;21081516;28;19951;-77
2024/03/04 13:46:57;;;;;;;;;;;8.80;99.90;;;;;;21080899;28;19947;-77
2024/03/04 13:56:58;;;;;;;;;;;8.40;99.90;;;;;;21072316;28;19916;-78
2024/03/04 14:07:01;;;;;;;;;;;8.30;99.90;;;;;;21062352;28;19912;-77
2024/03/04 14:17:01;;;;;;;;;;;8.60;99.90;;;;;;21071412;28;19976;-78
2024/03/04 14:27:05;;;;;;;;;;;9.00;99.90;;;;;;21085414;28;19912;-77
2024/03/04 14:37:05;;;;;;;;;;;9.30;99.90;;;;;;21077545;28;19966;-77
2024/03/04 14:47:06;;;;;;;;;;;9.60;99.90;;;;;;21075655;28;19916;-77
2024/03/04 14:57:07;;;;;;;;;;;9.90;99.90;;;;;;21076460;28;19916;-77
2024/03/04 15:07:08;;;;;;;;;;;9.90;99.90;;;;;;21074627;28;19919;-77
2024/03/04 15:17:09;;;;;;;;;;;9.50;99.90;;;;;;21043814;28;19962;-77
2024/03/04 15:27:10;;;;;;;;;;;8.90;99.90;;;;;;21052249;28;19963;-78
2024/03/04 15:37:11;;;;;;;;;;;8.80;99.90;;;;;;21073350;28;20064;-77
2024/03/04 15:47:11;;;;;;;;;;;8.70;99.90;;;;;;21072216;28;19912;-79
2024/03/04 15:57:12;;;;;;;;;;;8.60;99.90;;;;;;21091219;28;20014;-77
2024/03/04 16:07:13;;;;;;;;;;;8.50;99.90;;;;;;21079399;28;19913;-77
2024/03/04 16:17:13;;;;;;;;;;;8.30;99.90;;;;;;21066641;28;20439;-78
2024/03/04 16:27:17;;;;;;;;;;;8.40;99.90;;;;;;21076275;28;19912;-77
2024/03/04 16:37:17;;;;;;;;;;;8.40;99.90;;;;;;21076438;28;19916;-77
2024/03/04 16:47:18;;;;;;;;;;;8.30;99.90;;;;;;21074164;28;19919;-78
2024/03/04 16:57:19;;;;;;;;;;;8.20;99.90;;;;;;21087875;28;19916;-77
2024/03/04 17:07:20;;;;;;;;;;;8.10;99.90;;;;;;21080309;28;19966;-78
2024/03/04 17:17:21;;;;;;;;;;;8.10;99.90;;;;;;21081032;28;19923;-78
2024/03/04 17:27:22;;;;;;;;;;;8.00;99.90;;;;;;21094707;28;19916;-79
2024/03/04 17:37:22;;;;;;;;;;;7.90;99.90;;;;;;21095880;28;20006;-79
2024/03/04 17:47:23;;;;;;;;;;;7.80;99.90;;;;;;21083386;28;19912;-79
2024/03/04 17:57:23;;;;;;;;;;;7.60;99.90;;;;;;21097616;28;19923;-79
2024/03/04 18:07:24;;;;;;;;;;;7.50;99.90;;;;;;21077159;28;19912;-78
2024/03/04 18:17:25;;;;;;;;;;;7.10;99.90;;;;;;21079153;28;20417;-78
2024/03/04 18:27:26;;;;;;;;;;;6.70;99.90;;;;;;21085840;28;19920;-78
2024/03/04 18:37:27;;;;;;;;;;;6.40;99.90;;;;;;21091443;28;19922;-79
2024/03/04 18:47:28;;;;;;;;;;;6.30;99.90;;;;;;21067670;28;19912;-79
2024/03/04 18:57:28;;;;;;;;;;;6.20;99.90;;;;;;21036212;28;19962;-77
2024/03/04 19:07:31;;;;;;;;;;;6.10;99.90;;;;;;21034384;28;19965;-78
2024/03/04 19:17:32;;;;;;;;;;;5.90;99.90;;;;;;21033758;28;20012;-79
2024/03/04 19:27:32;;;;;;;;;;;5.80;99.90;;;;;;21030436;28;19912;-79
2024/03/04 19:37:33;;;;;;;;;;;5.60;99.90;;;;;;21035990;28;19916;-80
2024/03/04 19:47:35;;;;;;;;;;;5.40;99.90;;;;;;21016701;28;19913;-78
2024/03/04 19:57:36;;;;;;;;;;;5.30;99.90;;;;;;21014904;28;19962;-78
2024/03/04 20:07:37;;;;;;;;;;;5.20;99.90;;;;;;21011605;28;20268;-78
2024/03/04 20:17:38;;;;;;;;;;;5.30;99.90;;;;;;21018493;28;19926;-78
2024/03/04 20:27:39;;;;;;;;;;;5.40;99.90;;;;;;21036717;28;19916;-78
2024/03/04 20:37:39;;;;;;;;;;;5.60;99.90;;;;;;21057147;28;20371;-78
2024/03/04 20:47:40;;;;;;;;;;;5.70;99.90;;;;;;21037173;28;19912;-77
2024/03/04 20:57:41;;;;;;;;;;;5.90;99.90;;;;;;21030515;28;19916;-78
2024/03/04 21:07:43;;;;;;;;;;;6.00;99.90;;;;;;21082243;28;19999;-79
2024/03/04 21:17:44;;;;;;;;;;;6.10;99.90;;;;;;21100955;28;19916;-78
2024/03/04 21:27:45;;;;;;;;;;;6.20;99.90;;;;;;21107820;28;19955;-79
2024/03/04 21:37:46;;;;;;;;;;;6.30;99.90;;;;;;21068282;28;19916;-79
2024/03/04 21:47:46;;;;;;;;;;;6.40;99.90;;;;;;21099934;28;19912;-77
2024/03/04 21:57:47;;;;;;;;;;;6.50;99.90;;;;;;21099094;28;20487;-78
2024/03/04 22:07:47;;;;;;;;;;;6.50;99.90;;;;;;21031063;28;19955;-77
2024/03/04 22:17:48;;;;;;;;;;;6.60;99.90;;;;;;21048378;28;19974;-78
2024/03/04 22:27:49;;;;;;;;;;;6.60;99.90;;;;;;21058173;28;19912;-77
2024/03/04 22:37:49;;;;;;;;;;;6.60;99.90;;;;;;21090711;28;19916;-77
2024/03/04 22:47:50;;;;;;;;;;;6.60;99.90;;;;;;21082040;28;19920;-77
2024/03/04 22:57:51;;;;;;;;;;;6.70;99.90;;;;;;21078055;28;19916;-77
2024/03/04 23:07:51;;;;;;;;;;;6.70;99.90;;;;;;21039673;28;19912;-78
2024/03/04 23:17:52;;;;;;;;;;;6.70;99.90;;;;;;21054496;28;20406;-78
2024/03/04 23:27:53;;;;;;;;;;;6.70;99.90;;;;;;21023814;28;19931;-76
2024/03/04 23:37:54;;;;;;;;;;;6.60;99.90;;;;;;21050572;28;19959;-77
2024/03/04 23:47:54;;;;;;;;;;;6.60;99.90;;;;;;21020908;28;19919;-78
2024/03/04 23:57:55;;;;;;;;;;;6.70;99.90;;;;;;21073077;28;19916;-78
